Weather at Milford "Heliport" (PPR)

Public forecast

Using degrees Celsius for public forecast. Weather courtesy of forecast.io.

Closest aviation weather report (METAR) to Milford "Heliport" (PPR)

Closest report is CFB Trenton, 21.9 nm (40.6 km) WNW.

2023/03/27 12:00 (retrieved 1 hour ago)

CYTR 271200Z 00000KT 15SM BKN060 OVC075 00/M03 A3007 RMK SC5AC3 DENSITY ALT -1615FT VIRGA SLP185

Closest aviation forecast (TAF) to Milford "Heliport" (PPR)

Closest forecast is CFB Trenton, 21.9 nm (40.6 km) WNW.

2023/03/27 12:42 (retrieved 23 minutes ago)

TAF TAF CYTR 271140Z 2712/2812 VRB03KT P6SM BKN070 OVC140 BECMG 2713/2715 5SM -SN BKN060 OVC140 FM271500 03005KT P6SM OVC060 TEMPO 2715/2717 5SM -SN BKN030 OVC040 PROB30 2715/2717 2SM -SN FM271700 04006KT P6SM SCT020 OVC040 TEMPO 2717/2803 5SM -RASN BR BKN020 OVC030 BECMG 2803/2805 36007KT SCT030 RMK NXT FCST BY 271800Z